createdAt,value
2022-11-19T00:01:28.239Z,4.35
2022-11-19T00:03:55.700Z,4.35
2022-11-19T00:06:27.534Z,4.32
2022-11-19T00:08:55.087Z,4.32
2022-11-19T00:11:46.723Z,4.30
2022-11-19T00:14:16.137Z,4.32
2022-11-19T00:16:44.093Z,4.28
2022-11-19T00:19:11.679Z,4.27
2022-11-19T00:21:38.531Z,4.24
2022-11-19T00:24:05.777Z,4.26
2022-11-19T00:26:33.773Z,4.29
2022-11-19T00:29:00.578Z,4.30
2022-11-19T00:31:27.307Z,4.30
2022-11-19T00:33:54.643Z,4.28
2022-11-19T00:36:23.292Z,4.20
2022-11-19T00:38:50.279Z,4.18
2022-11-19T00:41:17.103Z,4.16
2022-11-19T00:43:50.373Z,4.14
2022-11-19T00:46:18.821Z,4.12
2022-11-19T00:48:48.453Z,4.14
2022-11-19T00:51:17.824Z,4.12
2022-11-19T00:53:44.666Z,4.10
2022-11-19T00:56:14.979Z,4.08
2022-11-19T00:58:42.674Z,4.06
2022-11-19T01:01:12.138Z,4.09
2022-11-19T01:03:41.319Z,4.11
2022-11-19T01:06:10.069Z,4.04
2022-11-19T01:08:37.821Z,4.01
2022-11-19T01:11:16.008Z,4.01
2022-11-19T01:13:43.168Z,4.00
2022-11-19T01:16:25.359Z,3.96
2022-11-19T01:18:53.311Z,3.96
2022-11-19T01:21:24.205Z,3.93
2022-11-19T01:23:51.433Z,3.93
2022-11-19T01:26:19.485Z,3.87
2022-11-19T01:28:46.915Z,3.81
2022-11-19T01:31:16.521Z,3.76
2022-11-19T01:33:44.271Z,3.77
2022-11-19T01:36:16.945Z,3.76
2022-11-19T01:38:44.130Z,3.75
2022-11-19T01:41:10.870Z,3.72
2022-11-19T01:43:56.311Z,3.71
2022-11-19T01:46:27.240Z,3.72
2022-11-19T01:49:01.688Z,3.73
2022-11-19T01:51:44.001Z,3.70
2022-11-19T01:54:30.124Z,3.68
2022-11-19T01:57:02.988Z,3.68
2022-11-19T01:59:31.988Z,3.67
2022-11-19T02:01:58.841Z,3.62
2022-11-19T02:04:27.561Z,3.55
2022-11-19T02:06:55.966Z,3.52
2022-11-19T02:09:26.849Z,3.47
2022-11-19T02:12:13.792Z,3.41
2022-11-19T02:14:58.973Z,3.35
2022-11-19T02:17:57.639Z,3.32
2022-11-19T02:20:46.567Z,3.23
2022-11-19T02:24:18.071Z,3.13
2022-11-19T02:27:34.710Z,3.03
2022-11-19T02:30:13.807Z,2.98
2022-11-19T02:33:04.029Z,2.91
2022-11-19T02:35:40.367Z,2.83
2022-11-19T02:38:24.109Z,2.76
2022-11-19T02:41:26.416Z,2.68
2022-11-19T02:44:22.740Z,2.66
2022-11-19T02:46:54.385Z,2.63
2022-11-19T02:49:26.186Z,2.62
2022-11-19T02:51:54.493Z,2.59
2022-11-19T02:54:21.346Z,2.62
2022-11-19T02:56:55.323Z,2.62
2022-11-19T03:00:09.568Z,2.63
2022-11-19T03:03:01.099Z,2.61
2022-11-19T03:05:33.784Z,2.56
2022-11-19T03:08:01.102Z,2.56
2022-11-19T03:10:50.473Z,2.56
2022-11-19T03:13:58.764Z,2.53
2022-11-19T03:16:41.361Z,2.54
2022-11-19T03:19:22.535Z,2.54
2022-11-19T03:22:00.783Z,2.53
2022-11-19T03:24:40.298Z,2.52
2022-11-19T03:27:19.768Z,2.54
2022-11-19T03:29:56.854Z,2.54
2022-11-19T03:32:36.390Z,2.55
2022-11-19T03:35:11.802Z,2.56
2022-11-19T03:37:42.927Z,2.57
2022-11-19T03:40:15.337Z,2.58
2022-11-19T03:42:46.674Z,2.58
2022-11-19T03:45:23.336Z,2.58
2022-11-19T03:47:52.710Z,2.56
2022-11-19T03:50:41.309Z,2.52
2022-11-19T03:53:08.128Z,2.51
2022-11-19T03:55:45.292Z,2.49
2022-11-19T03:58:12.498Z,2.43
2022-11-19T04:00:39.672Z,2.40
2022-11-19T04:03:06.433Z,2.38
2022-11-19T04:05:33.228Z,2.38
2022-11-19T04:07:59.983Z,2.38
2022-11-19T04:10:26.751Z,2.36
2022-11-19T04:12:53.503Z,2.34
2022-11-19T04:15:20.248Z,2.33
2022-11-19T04:17:47.229Z,2.35
2022-11-19T04:20:14.514Z,2.37
2022-11-19T04:22:42.068Z,2.33
2022-11-19T04:25:09.590Z,2.34
2022-11-19T04:27:36.603Z,2.34
2022-11-19T04:30:04.757Z,2.32
2022-11-19T04:32:31.556Z,2.30
2022-11-19T04:34:58.299Z,2.28
2022-11-19T04:37:25.035Z,2.23
2022-11-19T04:39:51.747Z,2.22
2022-11-19T04:42:18.514Z,2.19
2022-11-19T04:44:45.459Z,2.16
2022-11-19T04:47:12.502Z,2.19
2022-11-19T04:49:39.306Z,2.19
2022-11-19T04:52:06.109Z,2.16
2022-11-19T04:54:32.937Z,2.13
2022-11-19T04:56:59.700Z,2.14
2022-11-19T04:59:26.428Z,2.11
2022-11-19T05:01:53.290Z,2.10
2022-11-19T05:04:20.187Z,2.10
2022-11-19T05:06:46.880Z,2.13
2022-11-19T05:09:13.627Z,2.12
2022-11-19T05:11:40.384Z,2.13
2022-11-19T05:14:07.238Z,2.12
2022-11-19T05:16:33.969Z,2.09
2022-11-19T05:19:00.711Z,2.07
2022-11-19T05:21:27.984Z,2.08
2022-11-19T05:23:54.772Z,2.06
2022-11-19T05:26:21.499Z,2.03
2022-11-19T05:28:48.232Z,2.04
2022-11-19T05:31:14.943Z,2.04
2022-11-19T05:33:41.702Z,2.00
2022-11-19T05:36:08.756Z,2.01
2022-11-19T05:38:35.628Z,2.00
2022-11-19T05:41:02.335Z,2.01
2022-11-19T05:43:29.240Z,2.02
2022-11-19T05:46:00.930Z,2.03
2022-11-19T05:48:27.911Z,2.02
2022-11-19T05:50:54.663Z,2.01
2022-11-19T05:53:21.587Z,1.98
2022-11-19T05:55:48.400Z,1.97
2022-11-19T05:58:15.191Z,1.99
2022-11-19T06:00:42.097Z,2.00
2022-11-19T06:03:10.661Z,1.97
2022-11-19T06:05:40.591Z,1.96
2022-11-19T06:08:07.792Z,1.93
2022-11-19T06:10:34.541Z,1.93
2022-11-19T06:13:01.425Z,1.88
2022-11-19T06:15:28.224Z,1.87
2022-11-19T06:17:56.859Z,1.85
2022-11-19T06:20:23.661Z,1.82
2022-11-19T06:22:51.731Z,1.83
2022-11-19T06:25:19.199Z,1.83
2022-11-19T06:27:45.965Z,1.80
2022-11-19T06:30:14.191Z,1.78
2022-11-19T06:32:40.987Z,1.79
2022-11-19T06:35:08.332Z,1.79
2022-11-19T06:37:35.921Z,1.82
2022-11-19T06:40:03.385Z,1.80
2022-11-19T06:42:36.128Z,1.79
2022-11-19T06:45:10.593Z,1.79
2022-11-19T06:47:39.614Z,1.77
2022-11-19T06:50:09.314Z,1.76
2022-11-19T06:52:36.418Z,1.74
2022-11-19T06:55:03.638Z,1.73
2022-11-19T06:57:30.408Z,1.74
2022-11-19T06:59:57.153Z,1.74
2022-11-19T07:02:23.885Z,1.73
2022-11-19T07:04:50.820Z,1.72
2022-11-19T07:07:17.679Z,1.73
2022-11-19T07:09:44.514Z,1.73
2022-11-19T07:12:11.225Z,1.73
2022-11-19T07:14:38.004Z,1.70
2022-11-19T07:17:05.317Z,1.66
2022-11-19T07:19:32.256Z,1.68
2022-11-19T07:21:59.245Z,1.66
2022-11-19T07:24:26.737Z,1.69
2022-11-19T07:26:54.687Z,1.65
2022-11-19T07:29:21.815Z,1.64
2022-11-19T07:31:50.627Z,1.63
2022-11-19T07:34:18.243Z,1.61
2022-11-19T07:36:46.163Z,1.63
2022-11-19T07:39:13.391Z,1.63
2022-11-19T07:41:58.799Z,1.63
2022-11-19T07:44:25.719Z,1.65
2022-11-19T07:46:52.992Z,1.67
2022-11-19T07:49:21.463Z,1.72
2022-11-19T07:51:48.699Z,1.76
2022-11-19T07:54:15.446Z,1.79
2022-11-19T07:56:43.125Z,1.81
2022-11-19T07:59:10.335Z,1.80
2022-11-19T08:01:38.322Z,1.82
2022-11-19T08:04:05.559Z,1.78
2022-11-19T08:06:35.852Z,1.77
2022-11-19T08:09:05.136Z,1.76
2022-11-19T08:11:32.081Z,1.77
2022-11-19T08:14:02.304Z,1.81
2022-11-19T08:16:48.325Z,1.82
2022-11-19T08:19:18.467Z,1.82
2022-11-19T08:21:47.773Z,1.83
2022-11-19T08:24:19.814Z,1.84
2022-11-19T08:26:47.882Z,1.84
2022-11-19T08:29:17.003Z,1.81
2022-11-19T08:31:46.779Z,1.81
2022-11-19T08:34:15.503Z,1.84
2022-11-19T08:36:42.594Z,1.84
2022-11-19T08:39:09.851Z,1.88
2022-11-19T08:41:55.401Z,1.88
2022-11-19T08:44:22.733Z,1.84
2022-11-19T08:46:50.586Z,1.81
2022-11-19T08:49:17.592Z,1.81
2022-11-19T08:51:44.360Z,1.83
2022-11-19T08:54:12.828Z,1.81
2022-11-19T08:56:39.556Z,1.87
2022-11-19T08:59:06.334Z,1.85
2022-11-19T09:01:33.044Z,1.84
2022-11-19T09:03:59.807Z,1.81
2022-11-19T09:06:26.711Z,1.78
2022-11-19T09:08:53.905Z,1.78
2022-11-19T09:11:22.373Z,1.86
2022-11-19T09:13:49.236Z,1.89
2022-11-19T09:16:16.581Z,1.86
2022-11-19T09:18:43.551Z,1.88
2022-11-19T09:21:12.095Z,1.92
2022-11-19T09:23:41.448Z,1.93
2022-11-19T09:26:17.714Z,1.90
2022-11-19T09:28:45.725Z,1.83
2022-11-19T09:31:16.406Z,1.76
2022-11-19T09:33:47.449Z,1.74
2022-11-19T09:36:15.067Z,1.73
2022-11-19T09:38:42.696Z,1.72
2022-11-19T09:41:43.433Z,1.73
2022-11-19T09:44:43.837Z,1.71
2022-11-19T09:47:45.947Z,1.67
2022-11-19T09:50:23.042Z,1.64
2022-11-19T09:53:06.548Z,1.62
2022-11-19T09:55:40.099Z,1.57
2022-11-19T09:58:15.767Z,1.57
2022-11-19T10:00:45.107Z,1.53
2022-11-19T10:03:17.204Z,1.50
2022-11-19T10:06:28.563Z,1.53
2022-11-19T10:09:25.811Z,1.59
2022-11-19T10:12:26.255Z,1.63
2022-11-19T10:15:04.772Z,1.63
2022-11-19T10:17:53.913Z,1.56
2022-11-19T10:20:33.334Z,1.47
2022-11-19T10:23:12.673Z,1.44
2022-11-19T10:25:46.276Z,1.40
2022-11-19T10:28:20.905Z,1.35
2022-11-19T10:30:58.971Z,1.32
2022-11-19T10:33:51.923Z,1.32
2022-11-19T10:36:43.043Z,1.33
2022-11-19T10:39:27.642Z,1.30
2022-11-19T10:42:28.597Z,1.29
2022-11-19T10:45:22.164Z,1.37
2022-11-19T10:48:23.093Z,1.37
2022-11-19T10:50:51.747Z,1.33
2022-11-19T10:53:36.265Z,1.35
2022-11-19T10:56:15.334Z,1.34
2022-11-19T10:58:52.056Z,1.31
2022-11-19T11:01:32.883Z,1.28
2022-11-19T11:04:21.253Z,1.32
2022-11-19T11:06:53.664Z,1.36
2022-11-19T11:09:42.066Z,1.38
2022-11-19T11:12:36.757Z,1.37
2022-11-19T11:15:25.778Z,1.42
2022-11-19T11:18:06.200Z,1.50
2022-11-19T11:20:33.858Z,1.51
2022-11-19T11:23:13.988Z,1.51
2022-11-19T11:25:52.559Z,1.51
2022-11-19T11:28:23.832Z,1.47
2022-11-19T11:31:03.609Z,1.46
2022-11-19T11:33:40.536Z,1.45
2022-11-19T11:36:08.932Z,1.44
2022-11-19T11:39:04.597Z,1.46
2022-11-19T11:44:33.317Z,1.49
2022-11-19T11:47:12.769Z,1.51
2022-11-19T11:49:44.658Z,1.57
2022-11-19T11:52:11.323Z,1.58
2022-11-19T11:54:56.074Z,1.62
2022-11-19T11:57:26.509Z,1.72
2022-11-19T11:59:53.679Z,1.80
2022-11-19T12:02:35.429Z,1.81
2022-11-19T12:05:11.124Z,1.85
2022-11-19T12:08:28.512Z,1.87
2022-11-19T12:11:17.775Z,1.88
2022-11-19T12:14:12.633Z,1.95
2022-11-19T12:17:10.190Z,1.97
2022-11-19T12:20:21.378Z,2.01
2022-11-19T12:23:06.330Z,2.02
2022-11-19T12:26:12.504Z,2.07
2022-11-19T12:29:05.132Z,2.13
2022-11-19T12:31:40.656Z,2.23
2022-11-19T12:34:22.201Z,2.25
2022-11-19T12:37:16.508Z,2.30
2022-11-19T12:40:07.836Z,2.34
2022-11-19T12:42:52.744Z,2.34
2022-11-19T12:45:56.975Z,2.36
2022-11-19T12:49:00.141Z,2.34
2022-11-19T12:51:36.422Z,2.30
2022-11-19T12:54:50.997Z,2.29
2022-11-19T12:57:39.003Z,2.26
2022-11-19T13:00:05.738Z,2.25
2022-11-19T13:02:43.894Z,2.26
2022-11-19T13:05:22.204Z,2.31
2022-11-19T13:08:04.947Z,2.37
2022-11-19T13:10:48.214Z,2.38
2022-11-19T13:13:24.574Z,2.37
2022-11-19T13:16:15.118Z,2.38
2022-11-19T13:18:48.023Z,2.40
2022-11-19T13:21:38.938Z,2.45
2022-11-19T13:24:42.696Z,2.46
2022-11-19T13:27:23.637Z,2.54
2022-11-19T13:30:06.311Z,2.57
2022-11-19T13:32:46.560Z,2.61
2022-11-19T13:35:33.109Z,2.60
2022-11-19T13:38:18.216Z,2.57
2022-11-19T13:41:05.789Z,2.56
2022-11-19T13:43:51.346Z,2.53
2022-11-19T13:46:32.631Z,2.50
2022-11-19T13:49:20.928Z,2.45
2022-11-19T13:51:55.556Z,2.45
2022-11-19T13:54:37.286Z,2.42
2022-11-19T13:57:06.932Z,2.42
2022-11-19T13:59:42.468Z,2.41
2022-11-19T14:02:17.969Z,2.41
2022-11-19T14:05:00.980Z,2.37
2022-11-19T14:08:01.044Z,2.38
2022-11-19T14:10:57.974Z,2.37
2022-11-19T14:13:40.844Z,2.42
2022-11-19T14:17:01.927Z,2.39
2022-11-19T14:19:47.211Z,2.36
2022-11-19T14:22:58.714Z,2.36
2022-11-19T14:26:04.849Z,2.33
2022-11-19T14:28:46.830Z,2.33
2022-11-19T14:31:15.834Z,2.30
2022-11-19T14:33:48.733Z,2.31
2022-11-19T14:36:47.527Z,2.34
2022-11-19T14:39:40.549Z,2.31
2022-11-19T14:42:22.397Z,2.30
2022-11-19T14:44:58.085Z,2.35
2022-11-19T14:47:30.036Z,2.33
2022-11-19T14:50:01.525Z,2.34
2022-11-19T14:52:39.596Z,2.36
2022-11-19T14:55:52.919Z,2.31
2022-11-19T14:58:24.322Z,2.27
2022-11-19T15:01:10.661Z,2.27
2022-11-19T15:03:37.981Z,2.23
2022-11-19T15:06:08.175Z,2.21
2022-11-19T15:08:49.384Z,2.25
2022-11-19T15:11:17.654Z,2.24
2022-11-19T15:14:06.461Z,2.25
2022-11-19T15:16:34.133Z,2.27
2022-11-19T15:19:07.300Z,2.28
2022-11-19T15:21:55.665Z,2.26
2022-11-19T15:24:40.295Z,2.28
2022-11-19T15:27:09.950Z,2.27
2022-11-19T15:30:18.189Z,2.28
2022-11-19T15:33:18.675Z,2.25
2022-11-19T15:36:28.539Z,2.28
2022-11-19T15:39:09.436Z,2.27
2022-11-19T15:41:43.690Z,2.29
2022-11-19T15:44:19.175Z,2.30
2022-11-19T15:46:53.699Z,2.29
2022-11-19T15:49:27.564Z,2.32
2022-11-19T15:52:18.914Z,2.31
2022-11-19T15:54:45.806Z,2.27
2022-11-19T15:57:27.901Z,2.24
2022-11-19T16:00:04.705Z,2.21
2022-11-19T16:02:42.731Z,2.21
2022-11-19T16:05:24.873Z,2.22
2022-11-19T16:07:53.371Z,2.15
2022-11-19T16:10:30.686Z,2.13
2022-11-19T16:13:20.123Z,2.11
2022-11-19T16:16:11.694Z,2.10
2022-11-19T16:18:50.825Z,2.09
2022-11-19T16:21:26.199Z,2.09
2022-11-19T16:24:12.966Z,2.11
2022-11-19T16:26:43.565Z,2.11
2022-11-19T16:29:21.771Z,2.11
2022-11-19T16:31:59.639Z,2.11
2022-11-19T16:34:31.626Z,2.09
2022-11-19T16:36:59.593Z,2.09
2022-11-19T16:39:33.239Z,2.12
2022-11-19T16:42:17.291Z,2.10
2022-11-19T16:45:14.556Z,2.10
2022-11-19T16:47:52.846Z,2.10
2022-11-19T16:50:35.611Z,2.14
2022-11-19T16:53:06.420Z,2.13
2022-11-19T16:55:35.586Z,2.11
2022-11-19T16:58:19.296Z,2.10
2022-11-19T17:00:52.612Z,2.10
2022-11-19T17:03:35.234Z,2.07
2022-11-19T17:06:04.676Z,2.07
2022-11-19T17:08:37.908Z,2.06
2022-11-19T17:11:40.852Z,2.08
2022-11-19T17:14:22.976Z,2.08
2022-11-19T17:16:53.357Z,2.10
2022-11-19T17:19:35.011Z,2.10
2022-11-19T17:22:17.625Z,2.10
2022-11-19T17:24:46.204Z,2.06
2022-11-19T17:27:28.389Z,2.04
2022-11-19T17:30:19.675Z,2.05
2022-11-19T17:32:51.808Z,2.02
2022-11-19T17:35:37.896Z,2.03
2022-11-19T17:38:27.550Z,2.00
2022-11-19T17:40:58.814Z,1.98
2022-11-19T17:43:51.462Z,1.98
2022-11-19T17:46:20.055Z,1.98
2022-11-19T17:48:49.501Z,1.95
2022-11-19T17:51:23.788Z,1.90
2022-11-19T17:53:52.568Z,1.83
2022-11-19T17:56:25.902Z,1.74
2022-11-19T17:58:52.636Z,1.66
2022-11-19T18:01:19.573Z,1.61
2022-11-19T18:03:47.309Z,1.57
2022-11-19T18:06:17.015Z,1.48
2022-11-19T18:08:44.851Z,1.37
2022-11-19T18:11:13.822Z,1.30
2022-11-19T18:13:42.495Z,1.21
2022-11-19T18:16:20.079Z,1.11
2022-11-19T18:18:47.516Z,1.02
2022-11-19T18:21:20.539Z,0.95
2022-11-19T18:23:49.873Z,0.88
2022-11-19T18:26:24.592Z,0.80
2022-11-19T18:28:51.560Z,0.70
2022-11-19T18:31:23.242Z,0.63
2022-11-19T18:33:50.421Z,0.55
2022-11-19T18:36:17.890Z,0.48
2022-11-19T18:38:45.212Z,0.38
2022-11-19T18:41:14.683Z,0.31
2022-11-19T18:44:00.309Z,0.21
2022-11-19T18:46:27.108Z,0.09
2022-11-19T18:48:53.907Z,-0.01
2022-11-19T18:51:21.680Z,-0.08
2022-11-19T18:53:48.647Z,-0.14
2022-11-19T18:56:18.011Z,-0.22
2022-11-19T18:58:44.856Z,-0.29
2022-11-19T19:01:13.047Z,-0.34
2022-11-19T19:03:39.973Z,-0.38
2022-11-19T19:06:09.199Z,-0.42
2022-11-19T19:08:37.033Z,-0.46
2022-11-19T19:11:26.757Z,-0.50
2022-11-19T19:13:54.267Z,-0.54
2022-11-19T19:16:22.061Z,-0.59
2022-11-19T19:18:49.246Z,-0.63
2022-11-19T19:21:22.532Z,-0.66
2022-11-19T19:23:50.109Z,-0.72
2022-11-19T19:26:18.727Z,-0.74
2022-11-19T19:28:51.891Z,-0.78
2022-11-19T19:31:20.195Z,-0.81
2022-11-19T19:33:47.958Z,-0.87
2022-11-19T19:36:16.925Z,-0.91
2022-11-19T19:38:44.495Z,-0.95
2022-11-19T19:41:17.459Z,-0.99
2022-11-19T19:43:44.371Z,-1.01
2022-11-19T19:46:15.132Z,-1.05
2022-11-19T19:48:47.308Z,-1.09
2022-11-19T19:51:16.519Z,-1.12
2022-11-19T19:53:44.003Z,-1.14
2022-11-19T19:56:20.079Z,-1.16
2022-11-19T19:58:49.239Z,-1.18
2022-11-19T20:01:22.416Z,-1.21
2022-11-19T20:03:54.234Z,-1.25
2022-11-19T20:06:23.554Z,-1.26
2022-11-19T20:08:50.631Z,-1.30
2022-11-19T20:11:21.396Z,-1.31
2022-11-19T20:13:48.552Z,-1.32
2022-11-19T20:16:18.883Z,-1.35
2022-11-19T20:18:48.210Z,-1.37
2022-11-19T20:21:19.535Z,-1.37
2022-11-19T20:23:46.645Z,-1.39
2022-11-19T20:26:17.633Z,-1.42
2022-11-19T20:28:45.365Z,-1.43
2022-11-19T20:31:20.165Z,-1.43
2022-11-19T20:33:53.457Z,-1.45
2022-11-19T20:36:20.741Z,-1.46
2022-11-19T20:38:47.549Z,-1.48
2022-11-19T20:41:35.358Z,-1.51
2022-11-19T20:44:20.590Z,-1.53
2022-11-19T20:46:49.426Z,-1.57
2022-11-19T20:49:17.722Z,-1.59
2022-11-19T20:51:45.810Z,-1.62
2022-11-19T20:54:12.968Z,-1.64
2022-11-19T20:56:40.915Z,-1.66
2022-11-19T20:59:07.806Z,-1.68
2022-11-19T21:01:35.940Z,-1.69
2022-11-19T21:04:02.903Z,-1.72
2022-11-19T21:06:30.539Z,-1.72
2022-11-19T21:08:57.544Z,-1.73
2022-11-19T21:11:24.513Z,-1.75
2022-11-19T21:13:51.271Z,-1.78
2022-11-19T21:16:22.036Z,-1.81
2022-11-19T21:18:48.970Z,-1.81
2022-11-19T21:21:18.394Z,-1.84
2022-11-19T21:23:45.700Z,-1.86
2022-11-19T21:26:23.254Z,-1.89
2022-11-19T21:28:53.256Z,-1.92
2022-11-19T21:31:45.737Z,-1.94
2022-11-19T21:34:20.426Z,-1.96
2022-11-19T21:36:48.460Z,-1.99
2022-11-19T21:39:17.190Z,-2.04
2022-11-19T21:41:44.801Z,-2.06
2022-11-19T21:44:14.296Z,-2.08
2022-11-19T21:46:45.095Z,-2.11
2022-11-19T21:49:11.847Z,-2.15
2022-11-19T21:51:38.636Z,-2.19
2022-11-19T21:54:05.637Z,-2.21
2022-11-19T21:56:38.315Z,-2.24
2022-11-19T21:59:07.151Z,-2.26
2022-11-19T22:01:34.540Z,-2.29
2022-11-19T22:04:01.331Z,-2.31
2022-11-19T22:06:28.051Z,-2.35
2022-11-19T22:08:55.350Z,-2.39
2022-11-19T22:11:32.056Z,-2.43
2022-11-19T22:14:08.748Z,-2.45
2022-11-19T22:16:39.552Z,-2.47
2022-11-19T22:19:07.072Z,-2.48
2022-11-19T22:21:35.079Z,-2.49
2022-11-19T22:24:02.375Z,-2.50
2022-11-19T22:26:29.390Z,-2.52
2022-11-19T22:28:58.460Z,-2.54
2022-11-19T22:31:26.082Z,-2.56
2022-11-19T22:33:53.912Z,-2.55
2022-11-19T22:36:23.125Z,-2.57
2022-11-19T22:38:51.637Z,-2.58
2022-11-19T22:41:20.620Z,-2.60
2022-11-19T22:43:47.414Z,-2.61
2022-11-19T22:46:15.399Z,-2.62
2022-11-19T22:48:42.215Z,-2.64
2022-11-19T22:51:17.565Z,-2.67
2022-11-19T22:53:44.752Z,-2.67
2022-11-19T22:56:16.489Z,-2.68
2022-11-19T22:58:43.780Z,-2.70
2022-11-19T23:01:21.206Z,-2.71
2022-11-19T23:03:48.497Z,-2.68
2022-11-19T23:06:16.985Z,-2.69
2022-11-19T23:08:45.096Z,-2.76
2022-11-19T23:11:14.870Z,-2.79
2022-11-19T23:13:44.629Z,-2.82
2022-11-19T23:16:19.157Z,-2.85
2022-11-19T23:18:52.730Z,-2.85
2022-11-19T23:21:26.966Z,-2.88
2022-11-19T23:23:55.040Z,-2.87
2022-11-19T23:26:28.786Z,-2.88
2022-11-19T23:28:56.206Z,-2.90
2022-11-19T23:31:32.394Z,-2.92
2022-11-19T23:33:59.796Z,-2.94
2022-11-19T23:36:32.760Z,-2.97
2022-11-19T23:39:00.590Z,-2.98
2022-11-19T23:41:32.278Z,-3.01
2022-11-19T23:43:59.264Z,-3.04
2022-11-19T23:46:32.914Z,-3.07
2022-11-19T23:49:01.374Z,-3.07
2022-11-19T23:51:35.185Z,-3.09
2022-11-19T23:54:02.519Z,-3.08
2022-11-19T23:56:33.074Z,-3.08
2022-11-19T23:59:02.099Z,-3.08
